sensor_id;sensor_type;location;lat;lon;timestamp;P1;durP1;ratioP1;P2;durP2;ratioP2
9665;SDS011;4871;52.004;5.924;2023-09-08T00:00:00;5.70;;;4.60;;
9665;SDS011;4871;52.004;5.924;2023-09-08T00:01:03;5.70;;;4.60;;
9665;SDS011;4871;52.004;5.924;2023-09-08T00:02:00;5.70;;;4.60;;
9665;SDS011;4871;52.004;5.924;2023-09-08T00:03:03;5.70;;;4.60;;
9665;SDS011;4871;52.004;5.924;2023-09-08T00:04:00;5.70;;;4.60;;
9665;SDS011;4871;52.004;5.924;2023-09-08T00:05:03;5.70;;;4.60;;
9665;SDS011;4871;52.004;5.924;2023-09-08T00:06:00;5.70;;;4.60;;
9665;SDS011;4871;52.004;5.924;2023-09-08T00:07:04;5.70;;;4.60;;
9665;SDS011;4871;52.004;5.924;2023-09-08T00:08:00;5.70;;;4.60;;
9665;SDS011;4871;52.004;5.924;2023-09-08T00:09:02;5.70;;;4.60;;
9665;SDS011;4871;52.004;5.924;2023-09-08T00:10:00;5.70;;;4.60;;
9665;SDS011;4871;52.004;5.924;2023-09-08T00:11:02;5.90;;;4.90;;
9665;SDS011;4871;52.004;5.924;2023-09-08T00:12:00;5.90;;;4.90;;
9665;SDS011;4871;52.004;5.924;2023-09-08T00:13:02;5.90;;;4.90;;
9665;SDS011;4871;52.004;5.924;2023-09-08T00:14:00;5.90;;;4.90;;
9665;SDS011;4871;52.004;5.924;2023-09-08T00:15:02;5.90;;;4.90;;
9665;SDS011;4871;52.004;5.924;2023-09-08T00:16:00;5.90;;;4.90;;
9665;SDS011;4871;52.004;5.924;2023-09-08T00:17:04;5.90;;;4.90;;
9665;SDS011;4871;52.004;5.924;2023-09-08T00:18:00;5.90;;;4.90;;
9665;SDS011;4871;52.004;5.924;2023-09-08T00:19:02;5.90;;;4.90;;
9665;SDS011;4871;52.004;5.924;2023-09-08T00:20:00;5.90;;;4.90;;
9665;SDS011;4871;52.004;5.924;2023-09-08T00:21:02;5.90;;;4.90;;
9665;SDS011;4871;52.004;5.924;2023-09-08T00:22:00;5.90;;;4.90;;
9665;SDS011;4871;52.004;5.924;2023-09-08T00:23:03;5.90;;;4.90;;
9665;SDS011;4871;52.004;5.924;2023-09-08T00:24:01;5.90;;;4.90;;
9665;SDS011;4871;52.004;5.924;2023-09-08T00:25:04;5.90;;;4.90;;
9665;SDS011;4871;52.004;5.924;2023-09-08T00:26:00;5.90;;;4.90;;
9665;SDS011;4871;52.004;5.924;2023-09-08T00:27:03;5.90;;;4.90;;
9665;SDS011;4871;52.004;5.924;2023-09-08T00:28:00;5.90;;;4.90;;
9665;SDS011;4871;52.004;5.924;2023-09-08T00:29:03;5.90;;;4.90;;
9665;SDS011;4871;52.004;5.924;2023-09-08T00:30:01;5.90;;;4.90;;
9665;SDS011;4871;52.004;5.924;2023-09-08T00:31:04;5.90;;;4.90;;
9665;SDS011;4871;52.004;5.924;2023-09-08T00:32:00;5.90;;;4.90;;
9665;SDS011;4871;52.004;5.924;2023-09-08T00:33:02;5.90;;;4.90;;
9665;SDS011;4871;52.004;5.924;2023-09-08T00:34:00;5.90;;;4.90;;
9665;SDS011;4871;52.004;5.924;2023-09-08T00:35:05;5.90;;;4.90;;
9665;SDS011;4871;52.004;5.924;2023-09-08T00:36:00;5.90;;;4.90;;
9665;SDS011;4871;52.004;5.924;2023-09-08T00:37:07;5.90;;;4.90;;
9665;SDS011;4871;52.004;5.924;2023-09-08T00:38:00;5.90;;;4.90;;
9665;SDS011;4871;52.004;5.924;2023-09-08T00:39:02;5.90;;;4.90;;
9665;SDS011;4871;52.004;5.924;2023-09-08T00:40:00;5.90;;;4.90;;
9665;SDS011;4871;52.004;5.924;2023-09-08T00:41:04;7.20;;;5.10;;
9665;SDS011;4871;52.004;5.924;2023-09-08T00:42:00;7.20;;;5.10;;
9665;SDS011;4871;52.004;5.924;2023-09-08T00:43:02;7.20;;;5.10;;
9665;SDS011;4871;52.004;5.924;2023-09-08T00:44:00;7.20;;;5.10;;
9665;SDS011;4871;52.004;5.924;2023-09-08T00:45:02;7.20;;;5.10;;
9665;SDS011;4871;52.004;5.924;2023-09-08T00:46:02;7.20;;;5.10;;
9665;SDS011;4871;52.004;5.924;2023-09-08T00:47:03;7.20;;;5.10;;
9665;SDS011;4871;52.004;5.924;2023-09-08T00:48:00;7.20;;;5.10;;
9665;SDS011;4871;52.004;5.924;2023-09-08T00:49:03;7.20;;;5.10;;
9665;SDS011;4871;52.004;5.924;2023-09-08T00:50:00;7.20;;;5.10;;
9665;SDS011;4871;52.004;5.924;2023-09-08T00:51:05;7.20;;;5.10;;
9665;SDS011;4871;52.004;5.924;2023-09-08T00:52:00;7.20;;;5.10;;
9665;SDS011;4871;52.004;5.924;2023-09-08T00:53:02;7.20;;;5.10;;
9665;SDS011;4871;52.004;5.924;2023-09-08T00:54:00;7.20;;;5.10;;
9665;SDS011;4871;52.004;5.924;2023-09-08T00:55:03;7.20;;;5.10;;
9665;SDS011;4871;52.004;5.924;2023-09-08T00:56:00;7.20;;;5.10;;
9665;SDS011;4871;52.004;5.924;2023-09-08T00:57:03;7.20;;;5.10;;
9665;SDS011;4871;52.004;5.924;2023-09-08T00:58:00;7.20;;;5.10;;
9665;SDS011;4871;52.004;5.924;2023-09-08T00:59:04;7.20;;;5.10;;
9665;SDS011;4871;52.004;5.924;2023-09-08T01:00:00;7.20;;;5.10;;
9665;SDS011;4871;52.004;5.924;2023-09-08T01:01:05;7.20;;;5.10;;
9665;SDS011;4871;52.004;5.924;2023-09-08T01:02:00;7.20;;;5.10;;
9665;SDS011;4871;52.004;5.924;2023-09-08T01:03:04;7.20;;;5.10;;
9665;SDS011;4871;52.004;5.924;2023-09-08T01:04:00;7.20;;;5.10;;
9665;SDS011;4871;52.004;5.924;2023-09-08T01:05:04;7.20;;;5.10;;
9665;SDS011;4871;52.004;5.924;2023-09-08T01:06:00;7.20;;;5.10;;
9665;SDS011;4871;52.004;5.924;2023-09-08T01:07:04;7.20;;;5.10;;
9665;SDS011;4871;52.004;5.924;2023-09-08T01:08:00;7.20;;;5.10;;
9665;SDS011;4871;52.004;5.924;2023-09-08T01:09:01;7.20;;;5.10;;
9665;SDS011;4871;52.004;5.924;2023-09-08T01:10:04;7.20;;;5.10;;
9665;SDS011;4871;52.004;5.924;2023-09-08T01:11:04;5.80;;;5.00;;
9665;SDS011;4871;52.004;5.924;2023-09-08T01:12:02;5.80;;;5.00;;
9665;SDS011;4871;52.004;5.924;2023-09-08T01:13:04;5.80;;;5.00;;
9665;SDS011;4871;52.004;5.924;2023-09-08T01:14:00;5.80;;;5.00;;
9665;SDS011;4871;52.004;5.924;2023-09-08T01:15:01;5.80;;;5.00;;
9665;SDS011;4871;52.004;5.924;2023-09-08T01:16:00;5.80;;;5.00;;
9665;SDS011;4871;52.004;5.924;2023-09-08T01:17:02;5.80;;;5.00;;
9665;SDS011;4871;52.004;5.924;2023-09-08T01:18:00;5.80;;;5.00;;
9665;SDS011;4871;52.004;5.924;2023-09-08T01:19:01;5.80;;;5.00;;
9665;SDS011;4871;52.004;5.924;2023-09-08T01:20:01;5.80;;;5.00;;
9665;SDS011;4871;52.004;5.924;2023-09-08T01:21:13;5.80;;;5.00;;
9665;SDS011;4871;52.004;5.924;2023-09-08T01:22:09;5.80;;;5.00;;
9665;SDS011;4871;52.004;5.924;2023-09-08T01:23:01;5.80;;;5.00;;
9665;SDS011;4871;52.004;5.924;2023-09-08T01:24:05;5.80;;;5.00;;
9665;SDS011;4871;52.004;5.924;2023-09-08T01:25:05;5.80;;;5.00;;
9665;SDS011;4871;52.004;5.924;2023-09-08T01:26:01;5.80;;;5.00;;
9665;SDS011;4871;52.004;5.924;2023-09-08T01:27:02;5.80;;;5.00;;
9665;SDS011;4871;52.004;5.924;2023-09-08T01:28:00;5.80;;;5.00;;
9665;SDS011;4871;52.004;5.924;2023-09-08T01:29:03;5.80;;;5.00;;
9665;SDS011;4871;52.004;5.924;2023-09-08T01:30:00;5.80;;;5.00;;
9665;SDS011;4871;52.004;5.924;2023-09-08T01:31:04;5.80;;;5.00;;
9665;SDS011;4871;52.004;5.924;2023-09-08T01:32:00;5.80;;;5.00;;
9665;SDS011;4871;52.004;5.924;2023-09-08T01:33:03;5.80;;;5.00;;
9665;SDS011;4871;52.004;5.924;2023-09-08T01:34:00;5.80;;;5.00;;
9665;SDS011;4871;52.004;5.924;2023-09-08T01:35:03;5.80;;;5.00;;
9665;SDS011;4871;52.004;5.924;2023-09-08T01:36:00;5.80;;;5.00;;
9665;SDS011;4871;52.004;5.924;2023-09-08T01:37:04;5.80;;;5.00;;
9665;SDS011;4871;52.004;5.924;2023-09-08T01:38:00;5.80;;;5.00;;
9665;SDS011;4871;52.004;5.924;2023-09-08T01:39:03;5.80;;;5.00;;
9665;SDS011;4871;52.004;5.924;2023-09-08T01:40:00;5.80;;;5.00;;
9665;SDS011;4871;52.004;5.924;2023-09-08T01:41:03;6.20;;;5.50;;
9665;SDS011;4871;52.004;5.924;2023-09-08T01:42:00;6.20;;;5.50;;
9665;SDS011;4871;52.004;5.924;2023-09-08T01:43:03;6.20;;;5.50;;
9665;SDS011;4871;52.004;5.924;2023-09-08T01:44:00;6.20;;;5.50;;
9665;SDS011;4871;52.004;5.924;2023-09-08T01:45:03;6.20;;;5.50;;
9665;SDS011;4871;52.004;5.924;2023-09-08T01:46:00;6.20;;;5.50;;
9665;SDS011;4871;52.004;5.924;2023-09-08T01:47:03;6.20;;;5.50;;
9665;SDS011;4871;52.004;5.924;2023-09-08T01:48:00;6.20;;;5.50;;
9665;SDS011;4871;52.004;5.924;2023-09-08T01:49:03;6.20;;;5.50;;
9665;SDS011;4871;52.004;5.924;2023-09-08T01:50:00;6.20;;;5.50;;
9665;SDS011;4871;52.004;5.924;2023-09-08T01:51:02;6.20;;;5.50;;
9665;SDS011;4871;52.004;5.924;2023-09-08T01:52:00;6.20;;;5.50;;
9665;SDS011;4871;52.004;5.924;2023-09-08T01:53:04;6.20;;;5.50;;
9665;SDS011;4871;52.004;5.924;2023-09-08T01:54:00;6.20;;;5.50;;
9665;SDS011;4871;52.004;5.924;2023-09-08T01:55:03;6.20;;;5.50;;
9665;SDS011;4871;52.004;5.924;2023-09-08T01:56:00;6.20;;;5.50;;
9665;SDS011;4871;52.004;5.924;2023-09-08T01:57:02;6.20;;;5.50;;
9665;SDS011;4871;52.004;5.924;2023-09-08T01:58:00;6.20;;;5.50;;
9665;SDS011;4871;52.004;5.924;2023-09-08T01:59:02;6.20;;;5.50;;
9665;SDS011;4871;52.004;5.924;2023-09-08T02:00:00;6.20;;;5.50;;
9665;SDS011;4871;52.004;5.924;2023-09-08T02:01:05;6.20;;;5.50;;
9665;SDS011;4871;52.004;5.924;2023-09-08T02:02:00;6.20;;;5.50;;
9665;SDS011;4871;52.004;5.924;2023-09-08T02:03:03;6.20;;;5.50;;
9665;SDS011;4871;52.004;5.924;2023-09-08T02:04:00;6.20;;;5.50;;
9665;SDS011;4871;52.004;5.924;2023-09-08T02:05:03;6.20;;;5.50;;
9665;SDS011;4871;52.004;5.924;2023-09-08T02:06:00;6.20;;;5.50;;
9665;SDS011;4871;52.004;5.924;2023-09-08T02:07:06;6.20;;;5.50;;
9665;SDS011;4871;52.004;5.924;2023-09-08T02:08:00;6.20;;;5.50;;
9665;SDS011;4871;52.004;5.924;2023-09-08T02:09:03;6.20;;;5.50;;
9665;SDS011;4871;52.004;5.924;2023-09-08T02:10:00;6.20;;;5.50;;
9665;SDS011;4871;52.004;5.924;2023-09-08T02:11:03;5.20;;;4.10;;
9665;SDS011;4871;52.004;5.924;2023-09-08T02:12:00;5.20;;;4.10;;
9665;SDS011;4871;52.004;5.924;2023-09-08T02:13:04;5.20;;;4.10;;
9665;SDS011;4871;52.004;5.924;2023-09-08T02:14:00;5.20;;;4.10;;
9665;SDS011;4871;52.004;5.924;2023-09-08T02:15:05;5.20;;;4.10;;
9665;SDS011;4871;52.004;5.924;2023-09-08T02:16:00;5.20;;;4.10;;
9665;SDS011;4871;52.004;5.924;2023-09-08T02:17:03;5.20;;;4.10;;
9665;SDS011;4871;52.004;5.924;2023-09-08T02:18:00;5.20;;;4.10;;
9665;SDS011;4871;52.004;5.924;2023-09-08T02:19:04;5.20;;;4.10;;
9665;SDS011;4871;52.004;5.924;2023-09-08T02:20:00;5.20;;;4.10;;
9665;SDS011;4871;52.004;5.924;2023-09-08T02:21:02;5.20;;;4.10;;
9665;SDS011;4871;52.004;5.924;2023-09-08T02:22:00;5.20;;;4.10;;
9665;SDS011;4871;52.004;5.924;2023-09-08T02:23:04;5.20;;;4.10;;
9665;SDS011;4871;52.004;5.924;2023-09-08T02:24:00;5.20;;;4.10;;
9665;SDS011;4871;52.004;5.924;2023-09-08T02:25:03;5.20;;;4.10;;
9665;SDS011;4871;52.004;5.924;2023-09-08T02:26:00;5.20;;;4.10;;
9665;SDS011;4871;52.004;5.924;2023-09-08T02:27:04;5.20;;;4.10;;
9665;SDS011;4871;52.004;5.924;2023-09-08T02:28:00;5.20;;;4.10;;
9665;SDS011;4871;52.004;5.924;2023-09-08T02:29:02;5.20;;;4.10;;
9665;SDS011;4871;52.004;5.924;2023-09-08T02:30:00;5.20;;;4.10;;
9665;SDS011;4871;52.004;5.924;2023-09-08T02:31:04;5.20;;;4.10;;
9665;SDS011;4871;52.004;5.924;2023-09-08T02:32:00;5.20;;;4.10;;
9665;SDS011;4871;52.004;5.924;2023-09-08T02:33:04;5.20;;;4.10;;
9665;SDS011;4871;52.004;5.924;2023-09-08T02:34:00;5.20;;;4.10;;
9665;SDS011;4871;52.004;5.924;2023-09-08T02:35:02;5.20;;;4.10;;
9665;SDS011;4871;52.004;5.924;2023-09-08T02:36:02;5.20;;;4.10;;
9665;SDS011;4871;52.004;5.924;2023-09-08T02:37:03;5.20;;;4.10;;
9665;SDS011;4871;52.004;5.924;2023-09-08T02:38:00;5.20;;;4.10;;
9665;SDS011;4871;52.004;5.924;2023-09-08T02:39:03;5.20;;;4.10;;
9665;SDS011;4871;52.004;5.924;2023-09-08T02:40:00;5.20;;;4.10;;
9665;SDS011;4871;52.004;5.924;2023-09-08T02:41:04;5.20;;;4.70;;
9665;SDS011;4871;52.004;5.924;2023-09-08T02:42:00;5.20;;;4.70;;
9665;SDS011;4871;52.004;5.924;2023-09-08T02:43:05;5.20;;;4.70;;
9665;SDS011;4871;52.004;5.924;2023-09-08T02:44:00;5.20;;;4.70;;
9665;SDS011;4871;52.004;5.924;2023-09-08T02:45:04;5.20;;;4.70;;
9665;SDS011;4871;52.004;5.924;2023-09-08T02:46:00;5.20;;;4.70;;
9665;SDS011;4871;52.004;5.924;2023-09-08T02:47:03;5.20;;;4.70;;
9665;SDS011;4871;52.004;5.924;2023-09-08T02:48:00;5.20;;;4.70;;
9665;SDS011;4871;52.004;5.924;2023-09-08T02:49:03;5.20;;;4.70;;
9665;SDS011;4871;52.004;5.924;2023-09-08T02:50:00;5.20;;;4.70;;
9665;SDS011;4871;52.004;5.924;2023-09-08T02:51:03;5.20;;;4.70;;
9665;SDS011;4871;52.004;5.924;2023-09-08T02:52:00;5.20;;;4.70;;
9665;SDS011;4871;52.004;5.924;2023-09-08T02:53:03;5.20;;;4.70;;
9665;SDS011;4871;52.004;5.924;2023-09-08T02:54:00;5.20;;;4.70;;
9665;SDS011;4871;52.004;5.924;2023-09-08T02:55:03;5.20;;;4.70;;
9665;SDS011;4871;52.004;5.924;2023-09-08T02:56:00;5.20;;;4.70;;
9665;SDS011;4871;52.004;5.924;2023-09-08T02:57:04;5.20;;;4.70;;
9665;SDS011;4871;52.004;5.924;2023-09-08T02:58:00;5.20;;;4.70;;
9665;SDS011;4871;52.004;5.924;2023-09-08T02:59:03;5.20;;;4.70;;
9665;SDS011;4871;52.004;5.924;2023-09-08T03:00:00;5.20;;;4.70;;
9665;SDS011;4871;52.004;5.924;2023-09-08T03:01:11;5.20;;;4.70;;
9665;SDS011;4871;52.004;5.924;2023-09-08T03:02:00;5.20;;;4.70;;
9665;SDS011;4871;52.004;5.924;2023-09-08T03:03:03;5.20;;;4.70;;
9665;SDS011;4871;52.004;5.924;2023-09-08T03:04:00;5.20;;;4.70;;
9665;SDS011;4871;52.004;5.924;2023-09-08T03:05:03;5.20;;;4.70;;
9665;SDS011;4871;52.004;5.924;2023-09-08T03:06:03;5.20;;;4.70;;
9665;SDS011;4871;52.004;5.924;2023-09-08T03:07:04;5.20;;;4.70;;
9665;SDS011;4871;52.004;5.924;2023-09-08T03:08:00;5.20;;;4.70;;
9665;SDS011;4871;52.004;5.924;2023-09-08T03:09:04;5.20;;;4.70;;
9665;SDS011;4871;52.004;5.924;2023-09-08T03:10:00;5.20;;;4.70;;
9665;SDS011;4871;52.004;5.924;2023-09-08T03:11:04;5.20;;;4.70;;
9665;SDS011;4871;52.004;5.924;2023-09-08T03:12:00;5.20;;;4.70;;
9665;SDS011;4871;52.004;5.924;2023-09-08T03:13:03;5.20;;;4.70;;
9665;SDS011;4871;52.004;5.924;2023-09-08T03:14:00;5.20;;;4.70;;
9665;SDS011;4871;52.004;5.924;2023-09-08T03:15:05;5.20;;;4.70;;
9665;SDS011;4871;52.004;5.924;2023-09-08T03:16:03;5.20;;;4.70;;
9665;SDS011;4871;52.004;5.924;2023-09-08T03:17:02;5.20;;;4.70;;
9665;SDS011;4871;52.004;5.924;2023-09-08T03:18:00;5.20;;;4.70;;
9665;SDS011;4871;52.004;5.924;2023-09-08T03:19:02;5.20;;;4.70;;
9665;SDS011;4871;52.004;5.924;2023-09-08T03:20:00;5.20;;;4.70;;
9665;SDS011;4871;52.004;5.924;2023-09-08T03:21:09;5.20;;;4.70;;
9665;SDS011;4871;52.004;5.924;2023-09-08T03:22:00;5.20;;;4.70;;
9665;SDS011;4871;52.004;5.924;2023-09-08T03:23:03;5.20;;;4.70;;
9665;SDS011;4871;52.004;5.924;2023-09-08T03:24:00;5.20;;;4.70;;
9665;SDS011;4871;52.004;5.924;2023-09-08T03:25:04;5.20;;;4.70;;
9665;SDS011;4871;52.004;5.924;2023-09-08T03:26:00;5.20;;;4.70;;
9665;SDS011;4871;52.004;5.924;2023-09-08T03:27:03;5.20;;;4.70;;
9665;SDS011;4871;52.004;5.924;2023-09-08T03:28:00;5.20;;;4.70;;
9665;SDS011;4871;52.004;5.924;2023-09-08T03:29:03;5.20;;;4.70;;
9665;SDS011;4871;52.004;5.924;2023-09-08T03:30:00;5.20;;;4.70;;
9665;SDS011;4871;52.004;5.924;2023-09-08T03:31:04;5.20;;;4.70;;
9665;SDS011;4871;52.004;5.924;2023-09-08T03:32:00;5.20;;;4.70;;
9665;SDS011;4871;52.004;5.924;2023-09-08T03:33:03;5.20;;;4.70;;
9665;SDS011;4871;52.004;5.924;2023-09-08T03:34:00;5.20;;;4.70;;
9665;SDS011;4871;52.004;5.924;2023-09-08T03:35:05;5.20;;;4.70;;
9665;SDS011;4871;52.004;5.924;2023-09-08T03:36:00;5.20;;;4.70;;
9665;SDS011;4871;52.004;5.924;2023-09-08T03:37:03;5.20;;;4.70;;
9665;SDS011;4871;52.004;5.924;2023-09-08T03:38:00;5.20;;;4.70;;
9665;SDS011;4871;52.004;5.924;2023-09-08T03:39:03;5.20;;;4.70;;
9665;SDS011;4871;52.004;5.924;2023-09-08T03:40:00;5.20;;;4.70;;
9665;SDS011;4871;52.004;5.924;2023-09-08T03:41:03;7.40;;;6.10;;
9665;SDS011;4871;52.004;5.924;2023-09-08T03:42:00;7.40;;;6.10;;
9665;SDS011;4871;52.004;5.924;2023-09-08T03:43:03;7.40;;;6.10;;
9665;SDS011;4871;52.004;5.924;2023-09-08T03:44:00;7.40;;;6.10;;
9665;SDS011;4871;52.004;5.924;2023-09-08T03:45:03;7.40;;;6.10;;
9665;SDS011;4871;52.004;5.924;2023-09-08T03:46:00;7.40;;;6.10;;
9665;SDS011;4871;52.004;5.924;2023-09-08T03:47:03;7.40;;;6.10;;
9665;SDS011;4871;52.004;5.924;2023-09-08T03:48:00;7.40;;;6.10;;
9665;SDS011;4871;52.004;5.924;2023-09-08T03:49:01;7.40;;;6.10;;
9665;SDS011;4871;52.004;5.924;2023-09-08T03:50:00;7.40;;;6.10;;
9665;SDS011;4871;52.004;5.924;2023-09-08T03:51:03;7.40;;;6.10;;
9665;SDS011;4871;52.004;5.924;2023-09-08T03:52:00;7.40;;;6.10;;
9665;SDS011;4871;52.004;5.924;2023-09-08T03:53:04;7.40;;;6.10;;
9665;SDS011;4871;52.004;5.924;2023-09-08T03:54:00;7.40;;;6.10;;
9665;SDS011;4871;52.004;5.924;2023-09-08T03:55:03;7.40;;;6.10;;
9665;SDS011;4871;52.004;5.924;2023-09-08T03:56:00;7.40;;;6.10;;
9665;SDS011;4871;52.004;5.924;2023-09-08T03:57:04;7.40;;;6.10;;
9665;SDS011;4871;52.004;5.924;2023-09-08T03:58:00;7.40;;;6.10;;
9665;SDS011;4871;52.004;5.924;2023-09-08T03:59:02;7.40;;;6.10;;
9665;SDS011;4871;52.004;5.924;2023-09-08T04:00:00;7.40;;;6.10;;
9665;SDS011;4871;52.004;5.924;2023-09-08T04:01:03;7.40;;;6.10;;
9665;SDS011;4871;52.004;5.924;2023-09-08T04:02:01;7.40;;;6.10;;
9665;SDS011;4871;52.004;5.924;2023-09-08T04:03:03;7.40;;;6.10;;
9665;SDS011;4871;52.004;5.924;2023-09-08T04:04:00;7.40;;;6.10;;
9665;SDS011;4871;52.004;5.924;2023-09-08T04:05:03;7.40;;;6.10;;
9665;SDS011;4871;52.004;5.924;2023-09-08T04:06:00;7.40;;;6.10;;
9665;SDS011;4871;52.004;5.924;2023-09-08T04:07:03;7.40;;;6.10;;
9665;SDS011;4871;52.004;5.924;2023-09-08T04:08:01;7.40;;;6.10;;
9665;SDS011;4871;52.004;5.924;2023-09-08T04:09:04;7.40;;;6.10;;
9665;SDS011;4871;52.004;5.924;2023-09-08T04:10:00;7.40;;;6.10;;
9665;SDS011;4871;52.004;5.924;2023-09-08T04:11:02;8.70;;;7.10;;
9665;SDS011;4871;52.004;5.924;2023-09-08T04:12:00;8.70;;;7.10;;
9665;SDS011;4871;52.004;5.924;2023-09-08T04:13:02;8.70;;;7.10;;
9665;SDS011;4871;52.004;5.924;2023-09-08T04:14:00;8.70;;;7.10;;
9665;SDS011;4871;52.004;5.924;2023-09-08T04:15:03;8.70;;;7.10;;
9665;SDS011;4871;52.004;5.924;2023-09-08T04:16:00;8.70;;;7.10;;
9665;SDS011;4871;52.004;5.924;2023-09-08T04:17:03;8.70;;;7.10;;
9665;SDS011;4871;52.004;5.924;2023-09-08T04:18:00;8.70;;;7.10;;
9665;SDS011;4871;52.004;5.924;2023-09-08T04:19:04;8.70;;;7.10;;
9665;SDS011;4871;52.004;5.924;2023-09-08T04:20:00;8.70;;;7.10;;
9665;SDS011;4871;52.004;5.924;2023-09-08T04:21:03;8.70;;;7.10;;
9665;SDS011;4871;52.004;5.924;2023-09-08T04:22:00;8.70;;;7.10;;
9665;SDS011;4871;52.004;5.924;2023-09-08T04:23:05;8.70;;;7.10;;
9665;SDS011;4871;52.004;5.924;2023-09-08T04:24:00;8.70;;;7.10;;
9665;SDS011;4871;52.004;5.924;2023-09-08T04:25:05;8.70;;;7.10;;
9665;SDS011;4871;52.004;5.924;2023-09-08T04:26:00;8.70;;;7.10;;
9665;SDS011;4871;52.004;5.924;2023-09-08T04:27:03;8.70;;;7.10;;
9665;SDS011;4871;52.004;5.924;2023-09-08T04:28:00;8.70;;;7.10;;
9665;SDS011;4871;52.004;5.924;2023-09-08T04:29:04;8.70;;;7.10;;
9665;SDS011;4871;52.004;5.924;2023-09-08T04:30:00;8.70;;;7.10;;
9665;SDS011;4871;52.004;5.924;2023-09-08T04:31:03;8.70;;;7.10;;
9665;SDS011;4871;52.004;5.924;2023-09-08T04:32:00;8.70;;;7.10;;
9665;SDS011;4871;52.004;5.924;2023-09-08T04:33:02;8.70;;;7.10;;
9665;SDS011;4871;52.004;5.924;2023-09-08T04:34:00;8.70;;;7.10;;
9665;SDS011;4871;52.004;5.924;2023-09-08T04:35:04;8.70;;;7.10;;
9665;SDS011;4871;52.004;5.924;2023-09-08T04:36:00;8.70;;;7.10;;
9665;SDS011;4871;52.004;5.924;2023-09-08T04:37:03;8.70;;;7.10;;
9665;SDS011;4871;52.004;5.924;2023-09-08T04:38:00;8.70;;;7.10;;
9665;SDS011;4871;52.004;5.924;2023-09-08T04:39:04;8.70;;;7.10;;
9665;SDS011;4871;52.004;5.924;2023-09-08T04:40:00;8.70;;;7.10;;
9665;SDS011;4871;52.004;5.924;2023-09-08T04:41:03;10.80;;;7.70;;
9665;SDS011;4871;52.004;5.924;2023-09-08T04:42:00;10.80;;;7.70;;
9665;SDS011;4871;52.004;5.924;2023-09-08T04:43:03;10.80;;;7.70;;
9665;SDS011;4871;52.004;5.924;2023-09-08T04:44:00;10.80;;;7.70;;
9665;SDS011;4871;52.004;5.924;2023-09-08T04:45:04;10.80;;;7.70;;
9665;SDS011;4871;52.004;5.924;2023-09-08T04:46:02;10.80;;;7.70;;
9665;SDS011;4871;52.004;5.924;2023-09-08T04:47:02;10.80;;;7.70;;
9665;SDS011;4871;52.004;5.924;2023-09-08T04:48:00;10.80;;;7.70;;
9665;SDS011;4871;52.004;5.924;2023-09-08T04:49:02;10.80;;;7.70;;
9665;SDS011;4871;52.004;5.924;2023-09-08T04:50:00;10.80;;;7.70;;
9665;SDS011;4871;52.004;5.924;2023-09-08T04:51:02;10.80;;;7.70;;
9665;SDS011;4871;52.004;5.924;2023-09-08T04:52:00;10.80;;;7.70;;
9665;SDS011;4871;52.004;5.924;2023-09-08T04:53:03;10.80;;;7.70;;
9665;SDS011;4871;52.004;5.924;2023-09-08T04:54:00;10.80;;;7.70;;
9665;SDS011;4871;52.004;5.924;2023-09-08T04:55:03;10.80;;;7.70;;
9665;SDS011;4871;52.004;5.924;2023-09-08T04:56:00;10.80;;;7.70;;
9665;SDS011;4871;52.004;5.924;2023-09-08T04:57:03;10.80;;;7.70;;
9665;SDS011;4871;52.004;5.924;2023-09-08T04:58:00;10.80;;;7.70;;
9665;SDS011;4871;52.004;5.924;2023-09-08T04:59:03;10.80;;;7.70;;
9665;SDS011;4871;52.004;5.924;2023-09-08T05:00:00;10.80;;;7.70;;
9665;SDS011;4871;52.004;5.924;2023-09-08T05:01:03;10.80;;;7.70;;
9665;SDS011;4871;52.004;5.924;2023-09-08T05:02:00;10.80;;;7.70;;
9665;SDS011;4871;52.004;5.924;2023-09-08T05:03:03;10.80;;;7.70;;
9665;SDS011;4871;52.004;5.924;2023-09-08T05:04:00;10.80;;;7.70;;
9665;SDS011;4871;52.004;5.924;2023-09-08T05:05:02;10.80;;;7.70;;
9665;SDS011;4871;52.004;5.924;2023-09-08T05:06:01;10.80;;;7.70;;
9665;SDS011;4871;52.004;5.924;2023-09-08T05:07:04;10.80;;;7.70;;
9665;SDS011;4871;52.004;5.924;2023-09-08T05:08:00;10.80;;;7.70;;
9665;SDS011;4871;52.004;5.924;2023-09-08T05:09:04;10.80;;;7.70;;
9665;SDS011;4871;52.004;5.924;2023-09-08T05:10:00;10.80;;;7.70;;
9665;SDS011;4871;52.004;5.924;2023-09-08T05:11:04;9.20;;;7.30;;
9665;SDS011;4871;52.004;5.924;2023-09-08T05:12:00;9.20;;;7.30;;
9665;SDS011;4871;52.004;5.924;2023-09-08T05:13:04;9.20;;;7.30;;
9665;SDS011;4871;52.004;5.924;2023-09-08T05:14:00;9.20;;;7.30;;
9665;SDS011;4871;52.004;5.924;2023-09-08T05:15:10;9.20;;;7.30;;
9665;SDS011;4871;52.004;5.924;2023-09-08T05:16:10;9.20;;;7.30;;
9665;SDS011;4871;52.004;5.924;2023-09-08T05:17:04;9.20;;;7.30;;
9665;SDS011;4871;52.004;5.924;2023-09-08T05:18:00;9.20;;;7.30;;
9665;SDS011;4871;52.004;5.924;2023-09-08T05:19:02;9.20;;;7.30;;
9665;SDS011;4871;52.004;5.924;2023-09-08T05:20:00;9.20;;;7.30;;
9665;SDS011;4871;52.004;5.924;2023-09-08T05:21:05;9.20;;;7.30;;
9665;SDS011;4871;52.004;5.924;2023-09-08T05:22:00;9.20;;;7.30;;
9665;SDS011;4871;52.004;5.924;2023-09-08T05:23:04;9.20;;;7.30;;
9665;SDS011;4871;52.004;5.924;2023-09-08T05:24:00;9.20;;;7.30;;
9665;SDS011;4871;52.004;5.924;2023-09-08T05:25:04;9.20;;;7.30;;
9665;SDS011;4871;52.004;5.924;2023-09-08T05:26:00;9.20;;;7.30;;
9665;SDS011;4871;52.004;5.924;2023-09-08T05:27:03;9.20;;;7.30;;
9665;SDS011;4871;52.004;5.924;2023-09-08T05:28:00;9.20;;;7.30;;
9665;SDS011;4871;52.004;5.924;2023-09-08T05:29:02;9.20;;;7.30;;
9665;SDS011;4871;52.004;5.924;2023-09-08T05:30:00;9.20;;;7.30;;
9665;SDS011;4871;52.004;5.924;2023-09-08T05:31:03;9.20;;;7.30;;
9665;SDS011;4871;52.004;5.924;2023-09-08T05:32:00;9.20;;;7.30;;
9665;SDS011;4871;52.004;5.924;2023-09-08T05:33:03;9.20;;;7.30;;
9665;SDS011;4871;52.004;5.924;2023-09-08T05:34:00;9.20;;;7.30;;
9665;SDS011;4871;52.004;5.924;2023-09-08T05:35:03;9.20;;;7.30;;
9665;SDS011;4871;52.004;5.924;2023-09-08T05:36:00;9.20;;;7.30;;
9665;SDS011;4871;52.004;5.924;2023-09-08T05:37:03;9.20;;;7.30;;
9665;SDS011;4871;52.004;5.924;2023-09-08T05:38:00;9.20;;;7.30;;
9665;SDS011;4871;52.004;5.924;2023-09-08T05:39:04;9.20;;;7.30;;
9665;SDS011;4871;52.004;5.924;2023-09-08T05:40:00;8.90;;;7.60;;
9665;SDS011;4871;52.004;5.924;2023-09-08T05:41:02;8.90;;;7.60;;
9665;SDS011;4871;52.004;5.924;2023-09-08T05:42:00;8.90;;;7.60;;
9665;SDS011;4871;52.004;5.924;2023-09-08T05:43:04;8.90;;;7.60;;
9665;SDS011;4871;52.004;5.924;2023-09-08T05:44:00;8.90;;;7.60;;
9665;SDS011;4871;52.004;5.924;2023-09-08T05:45:05;8.90;;;7.60;;
9665;SDS011;4871;52.004;5.924;2023-09-08T05:46:00;8.90;;;7.60;;
9665;SDS011;4871;52.004;5.924;2023-09-08T05:47:02;8.90;;;7.60;;
9665;SDS011;4871;52.004;5.924;2023-09-08T05:48:00;8.90;;;7.60;;
9665;SDS011;4871;52.004;5.924;2023-09-08T05:49:03;8.90;;;7.60;;
9665;SDS011;4871;52.004;5.924;2023-09-08T05:50:00;8.90;;;7.60;;
9665;SDS011;4871;52.004;5.924;2023-09-08T05:51:03;8.90;;;7.60;;
9665;SDS011;4871;52.004;5.924;2023-09-08T05:52:00;8.90;;;7.60;;
9665;SDS011;4871;52.004;5.924;2023-09-08T05:53:04;8.90;;;7.60;;
9665;SDS011;4871;52.004;5.924;2023-09-08T05:54:00;8.90;;;7.60;;
9665;SDS011;4871;52.004;5.924;2023-09-08T05:55:04;8.90;;;7.60;;
9665;SDS011;4871;52.004;5.924;2023-09-08T05:56:00;8.90;;;7.60;;
9665;SDS011;4871;52.004;5.924;2023-09-08T05:57:02;8.90;;;7.60;;
9665;SDS011;4871;52.004;5.924;2023-09-08T05:58:00;8.90;;;7.60;;
9665;SDS011;4871;52.004;5.924;2023-09-08T05:59:03;8.90;;;7.60;;
9665;SDS011;4871;52.004;5.924;2023-09-08T06:00:00;8.90;;;7.60;;
9665;SDS011;4871;52.004;5.924;2023-09-08T06:01:01;8.90;;;7.60;;
9665;SDS011;4871;52.004;5.924;2023-09-08T06:02:00;8.90;;;7.60;;
9665;SDS011;4871;52.004;5.924;2023-09-08T06:03:04;8.90;;;7.60;;
9665;SDS011;4871;52.004;5.924;2023-09-08T06:04:00;8.90;;;7.60;;
9665;SDS011;4871;52.004;5.924;2023-09-08T06:05:04;8.90;;;7.60;;
9665;SDS011;4871;52.004;5.924;2023-09-08T06:06:00;8.90;;;7.60;;
9665;SDS011;4871;52.004;5.924;2023-09-08T06:07:03;8.90;;;7.60;;
9665;SDS011;4871;52.004;5.924;2023-09-08T06:08:00;8.90;;;7.60;;
9665;SDS011;4871;52.004;5.924;2023-09-08T06:09:06;8.90;;;7.60;;
9665;SDS011;4871;52.004;5.924;2023-09-08T06:10:00;8.80;;;7.40;;
9665;SDS011;4871;52.004;5.924;2023-09-08T06:11:02;8.80;;;7.40;;
9665;SDS011;4871;52.004;5.924;2023-09-08T06:12:00;8.80;;;7.40;;